createdAt,value
2022-08-25T00:01:58.458Z,59.28
2022-08-25T00:04:29.777Z,59.48
2022-08-25T00:07:02.213Z,59.03
2022-08-25T00:09:32.015Z,59.40
2022-08-25T00:11:59.294Z,59.24
2022-08-25T00:14:30.389Z,59.60
2022-08-25T00:16:57.620Z,59.45
2022-08-25T00:19:28.693Z,59.72
2022-08-25T00:21:56.188Z,59.86
2022-08-25T00:24:24.628Z,60.03
2022-08-25T00:26:55.122Z,59.91
2022-08-25T00:29:23.516Z,59.92
2022-08-25T00:31:51.142Z,60.00
2022-08-25T00:34:22.757Z,60.25
2022-08-25T00:36:51.792Z,60.26
2022-08-25T00:39:21.250Z,60.66
2022-08-25T00:41:50.439Z,60.48
2022-08-25T00:44:18.974Z,60.54
2022-08-25T00:46:55.010Z,60.57
2022-08-25T00:49:49.857Z,60.72
2022-08-25T00:52:19.314Z,60.84
2022-08-25T00:55:09.327Z,61.29
2022-08-25T00:57:43.447Z,61.29
2022-08-25T01:00:24.380Z,61.45
2022-08-25T01:02:51.878Z,61.25
2022-08-25T01:05:19.710Z,61.36
2022-08-25T01:07:46.883Z,61.49
2022-08-25T01:10:14.116Z,61.75
2022-08-25T01:12:41.515Z,61.92
2022-08-25T01:15:10.476Z,61.64
2022-08-25T01:17:51.481Z,61.87
2022-08-25T01:20:20.655Z,62.31
2022-08-25T01:22:50.923Z,62.29
2022-08-25T01:25:34.329Z,62.45
2022-08-25T01:28:01.236Z,62.79
2022-08-25T01:30:28.168Z,62.68
2022-08-25T01:32:55.026Z,63.01
2022-08-25T01:35:21.793Z,62.93
2022-08-25T01:37:48.597Z,63.28
2022-08-25T01:40:15.440Z,63.42
2022-08-25T01:43:02.346Z,63.28
2022-08-25T01:45:29.801Z,63.77
2022-08-25T01:47:56.954Z,63.52
2022-08-25T01:50:23.885Z,63.83
2022-08-25T01:53:09.161Z,63.53
2022-08-25T01:55:51.838Z,63.76
2022-08-25T01:58:31.768Z,64.01
2022-08-25T02:01:01.848Z,63.91
2022-08-25T02:03:29.670Z,63.87
2022-08-25T02:06:01.458Z,64.29
2022-08-25T02:08:31.204Z,64.04
2022-08-25T02:11:00.169Z,64.20
2022-08-25T02:13:31.583Z,64.38
2022-08-25T02:16:02.589Z,64.84
2022-08-25T02:18:29.706Z,64.59
2022-08-25T02:20:56.591Z,64.95
2022-08-25T02:23:23.448Z,65.14
2022-08-25T02:25:52.290Z,65.40
2022-08-25T02:28:19.182Z,65.22
2022-08-25T02:30:46.131Z,65.30
2022-08-25T02:33:13.701Z,65.67
2022-08-25T02:35:40.489Z,65.60
2022-08-25T02:38:08.351Z,65.69
2022-08-25T02:40:35.305Z,65.62
2022-08-25T02:43:02.350Z,65.93
2022-08-25T02:45:29.844Z,66.17
2022-08-25T02:47:57.039Z,65.96
2022-08-25T02:50:23.764Z,66.20
2022-08-25T02:52:52.333Z,66.24
2022-08-25T02:55:20.172Z,66.53
2022-08-25T02:57:48.327Z,66.63
2022-08-25T03:00:16.477Z,66.73
2022-08-25T03:02:46.892Z,66.67
2022-08-25T03:05:15.833Z,66.65
2022-08-25T03:07:42.974Z,66.70
2022-08-25T03:10:14.846Z,67.07
2022-08-25T03:12:42.124Z,67.02
2022-08-25T03:15:12.806Z,67.25
2022-08-25T03:17:40.857Z,67.03
2022-08-25T03:20:10.931Z,67.32
2022-08-25T03:22:38.235Z,67.28
2022-08-25T03:25:24.450Z,67.40
2022-08-25T03:27:52.126Z,67.68
2022-08-25T03:30:20.052Z,67.48
2022-08-25T03:32:47.325Z,67.80
2022-08-25T03:35:14.668Z,68.02
2022-08-25T03:37:41.757Z,68.13
2022-08-25T03:40:15.412Z,68.09
2022-08-25T03:42:45.423Z,68.10
2022-08-25T03:45:13.718Z,68.37
2022-08-25T03:47:40.769Z,68.67
2022-08-25T03:50:10.135Z,68.84
2022-08-25T03:52:41.790Z,68.76
2022-08-25T03:55:12.215Z,68.96
2022-08-25T03:57:39.580Z,68.78
2022-08-25T04:00:09.109Z,68.84
2022-08-25T04:02:35.946Z,69.21
2022-08-25T04:05:02.900Z,69.39
2022-08-25T04:07:30.895Z,69.39
2022-08-25T04:09:57.612Z,69.35
2022-08-25T04:12:24.807Z,69.61
2022-08-25T04:14:52.751Z,69.60
2022-08-25T04:17:19.576Z,69.93
2022-08-25T04:19:46.473Z,69.91
2022-08-25T04:22:13.379Z,69.96
2022-08-25T04:24:41.526Z,70.05
2022-08-25T04:27:08.460Z,70.17
2022-08-25T04:29:36.423Z,70.28
2022-08-25T04:32:03.595Z,70.65
2022-08-25T04:34:31.510Z,70.73
2022-08-25T04:37:04.086Z,70.74
2022-08-25T04:39:31.102Z,70.94
2022-08-25T04:41:57.968Z,70.92
2022-08-25T04:44:26.552Z,71.42
2022-08-25T04:46:53.586Z,71.35
2022-08-25T04:49:20.295Z,71.29
2022-08-25T04:51:47.245Z,71.29
2022-08-25T04:54:21.865Z,71.37
2022-08-25T04:56:50.644Z,71.39
2022-08-25T04:59:22.666Z,71.81
2022-08-25T05:01:52.384Z,72.03
2022-08-25T05:04:28.320Z,72.08
2022-08-25T05:06:56.804Z,72.18
2022-08-25T05:09:26.047Z,72.27
2022-08-25T05:11:53.691Z,72.38
2022-08-25T05:14:25.633Z,72.41
2022-08-25T05:16:55.349Z,72.48
2022-08-25T05:19:24.063Z,72.48
2022-08-25T05:21:51.495Z,72.58
2022-08-25T05:24:18.914Z,72.68
2022-08-25T05:26:46.044Z,72.89
2022-08-25T05:29:14.827Z,73.00
2022-08-25T05:31:46.993Z,72.74
2022-08-25T05:34:15.209Z,72.96
2022-08-25T05:36:43.696Z,72.79
2022-08-25T05:39:11.155Z,72.92
2022-08-25T05:41:38.707Z,72.90
2022-08-25T05:44:05.771Z,72.91
2022-08-25T05:46:33.312Z,73.07
2022-08-25T05:49:00.413Z,72.80
2022-08-25T05:51:27.364Z,73.02
2022-08-25T05:53:54.278Z,73.18
2022-08-25T05:56:21.404Z,73.12
2022-08-25T05:58:49.561Z,73.25
2022-08-25T06:01:41.083Z,73.35
2022-08-25T06:04:10.630Z,73.36
2022-08-25T06:06:37.638Z,73.16
2022-08-25T06:09:06.694Z,73.12
2022-08-25T06:11:33.699Z,73.15
2022-08-25T06:14:00.548Z,73.17
2022-08-25T06:16:27.343Z,73.03
2022-08-25T06:18:55.581Z,73.39
2022-08-25T06:21:22.446Z,73.38
2022-08-25T06:23:49.540Z,73.20
2022-08-25T06:26:20.714Z,73.20
2022-08-25T06:28:49.784Z,73.18
2022-08-25T06:31:17.781Z,73.38
2022-08-25T06:33:44.857Z,73.14
2022-08-25T06:36:11.664Z,73.03
2022-08-25T06:38:38.673Z,73.38
2022-08-25T06:41:08.404Z,73.17
2022-08-25T06:43:35.453Z,73.03
2022-08-25T06:46:14.084Z,73.07
2022-08-25T06:48:41.209Z,73.07
2022-08-25T06:51:10.629Z,73.06
2022-08-25T06:53:41.647Z,72.87
2022-08-25T06:56:09.215Z,72.79
2022-08-25T06:58:38.320Z,73.01
2022-08-25T07:01:22.600Z,72.90
2022-08-25T07:03:57.542Z,72.96
2022-08-25T07:06:26.013Z,72.74
2022-08-25T07:08:53.220Z,73.00
2022-08-25T07:11:22.997Z,72.66
2022-08-25T07:13:51.389Z,72.86
2022-08-25T07:16:20.623Z,72.73
2022-08-25T07:18:48.350Z,72.66
2022-08-25T07:21:16.133Z,72.66
2022-08-25T07:23:43.339Z,72.93
2022-08-25T07:26:36.337Z,72.50
2022-08-25T07:29:08.399Z,72.26
2022-08-25T07:31:35.523Z,71.94
2022-08-25T07:34:21.202Z,72.03
2022-08-25T07:36:48.237Z,71.29
2022-08-25T07:39:15.026Z,71.08
2022-08-25T07:41:42.495Z,70.85
2022-08-25T07:44:12.198Z,70.65
2022-08-25T07:46:40.135Z,70.66
2022-08-25T07:49:16.415Z,70.45
2022-08-25T07:52:04.112Z,70.03
2022-08-25T07:54:33.953Z,69.93
2022-08-25T07:57:05.970Z,69.95
2022-08-25T07:59:39.741Z,69.71
2022-08-25T08:02:18.617Z,69.53
2022-08-25T08:04:48.947Z,69.48
2022-08-25T08:07:19.196Z,69.25
2022-08-25T08:09:46.846Z,69.00
2022-08-25T08:12:13.843Z,69.37
2022-08-25T08:14:44.981Z,69.03
2022-08-25T08:17:13.779Z,68.83
2022-08-25T08:19:44.812Z,68.92
2022-08-25T08:22:15.348Z,68.94
2022-08-25T08:24:54.811Z,68.75
2022-08-25T08:27:23.639Z,68.36
2022-08-25T08:29:50.492Z,68.25
2022-08-25T08:32:18.555Z,67.87
2022-08-25T08:34:51.265Z,67.53
2022-08-25T08:37:22.830Z,67.31
2022-08-25T08:39:52.842Z,66.88
2022-08-25T08:42:32.353Z,66.33
2022-08-25T08:45:09.473Z,66.17
2022-08-25T08:48:23.620Z,65.41
2022-08-25T08:51:23.147Z,65.26
2022-08-25T08:54:15.878Z,64.41
2022-08-25T08:56:48.546Z,64.36
2022-08-25T08:59:30.754Z,63.59
2022-08-25T09:02:04.345Z,63.16
2022-08-25T09:04:40.545Z,62.96
2022-08-25T09:07:13.166Z,62.20
2022-08-25T09:09:42.511Z,61.97
2022-08-25T09:12:12.159Z,61.25
2022-08-25T09:15:03.127Z,60.67
2022-08-25T09:18:17.132Z,59.71
2022-08-25T09:21:21.550Z,59.38
2022-08-25T09:24:14.130Z,59.25
2022-08-25T09:27:06.957Z,58.67
2022-08-25T09:29:49.256Z,58.07
2022-08-25T09:32:24.130Z,57.37
2022-08-25T09:35:01.383Z,56.90
2022-08-25T09:37:28.998Z,56.46
2022-08-25T09:39:55.908Z,56.22
2022-08-25T09:42:51.547Z,55.32
2022-08-25T09:45:35.061Z,55.25
2022-08-25T09:48:03.096Z,54.76
2022-08-25T09:50:34.860Z,54.42
2022-08-25T09:53:17.463Z,54.05
2022-08-25T09:55:59.864Z,53.55
2022-08-25T09:58:27.893Z,52.74
2022-08-25T10:01:19.793Z,52.69
2022-08-25T10:03:57.635Z,52.33
2022-08-25T10:06:26.045Z,51.82
2022-08-25T10:08:58.172Z,51.37
2022-08-25T10:11:42.590Z,51.26
2022-08-25T10:14:36.589Z,50.81
2022-08-25T10:17:29.504Z,50.36
2022-08-25T10:20:12.283Z,50.14
2022-08-25T10:22:42.614Z,49.48
2022-08-25T10:25:12.458Z,49.22
2022-08-25T10:28:26.506Z,48.46
2022-08-25T10:31:06.512Z,47.80
2022-08-25T10:34:01.599Z,47.49
2022-08-25T10:36:38.405Z,47.18
2022-08-25T10:39:34.668Z,46.62
2022-08-25T10:42:30.299Z,46.22
2022-08-25T10:45:32.000Z,45.73
2022-08-25T10:48:13.294Z,45.10
2022-08-25T10:50:54.945Z,44.51
2022-08-25T10:53:34.732Z,43.95
2022-08-25T10:56:08.254Z,43.73
2022-08-25T10:59:22.610Z,43.46
2022-08-25T11:02:08.070Z,43.11
2022-08-25T11:04:51.839Z,42.82
2022-08-25T11:08:12.073Z,42.35
2022-08-25T11:11:13.768Z,42.27
2022-08-25T11:13:53.291Z,41.89
2022-08-25T11:16:35.247Z,41.62
2022-08-25T11:19:29.060Z,40.77
2022-08-25T11:22:19.335Z,39.98
2022-08-25T11:25:10.198Z,39.80
2022-08-25T11:27:41.996Z,39.54
2022-08-25T11:30:14.683Z,38.99
2022-08-25T11:32:47.099Z,38.58
2022-08-25T11:35:14.822Z,38.22
2022-08-25T11:37:59.668Z,37.46
2022-08-25T11:41:02.016Z,36.54
2022-08-25T11:44:00.119Z,36.15
2022-08-25T11:46:39.670Z,36.12
2022-08-25T11:49:44.234Z,36.24
2022-08-25T11:52:34.656Z,36.48
2022-08-25T11:55:26.499Z,36.33
2022-08-25T11:58:28.273Z,36.74
2022-08-25T12:00:59.882Z,36.55
2022-08-25T12:03:32.638Z,36.57
2022-08-25T12:06:14.839Z,35.86
2022-08-25T12:09:04.317Z,34.83
2022-08-25T12:11:58.546Z,33.79
2022-08-25T12:14:28.260Z,32.88
2022-08-25T12:16:55.312Z,32.03
2022-08-25T12:19:26.979Z,31.82
2022-08-25T12:22:03.398Z,31.81
2022-08-25T12:24:47.597Z,32.03
2022-08-25T12:27:33.576Z,32.39
2022-08-25T12:30:18.595Z,32.85
2022-08-25T12:33:08.047Z,33.34
2022-08-25T12:36:07.471Z,33.71
2022-08-25T12:38:52.152Z,34.18
2022-08-25T12:41:26.643Z,34.35
2022-08-25T12:44:09.948Z,34.29
2022-08-25T12:46:39.577Z,34.55
2022-08-25T12:49:15.514Z,34.26
2022-08-25T12:51:57.454Z,34.39
2022-08-25T12:54:52.295Z,34.45
2022-08-25T12:57:42.031Z,34.74
2022-08-25T13:00:16.283Z,34.76
2022-08-25T13:02:56.313Z,35.06
2022-08-25T13:05:26.001Z,35.27
2022-08-25T13:08:33.748Z,35.19
2022-08-25T13:11:25.221Z,35.25
2022-08-25T13:14:02.070Z,35.25
2022-08-25T13:16:30.455Z,34.63
2022-08-25T13:19:01.703Z,33.56
2022-08-25T13:21:38.454Z,32.34
2022-08-25T13:24:28.104Z,30.80
2022-08-25T13:26:57.987Z,29.26
2022-08-25T13:29:35.842Z,28.31
2022-08-25T13:32:09.297Z,26.97
2022-08-25T13:34:42.523Z,26.15
2022-08-25T13:37:31.343Z,25.05
2022-08-25T13:40:33.452Z,23.81
2022-08-25T13:43:07.832Z,23.20
2022-08-25T13:45:41.866Z,23.18
2022-08-25T13:48:23.090Z,23.65
2022-08-25T13:50:53.118Z,24.33
2022-08-25T13:53:25.575Z,24.91
2022-08-25T13:55:57.174Z,25.36
2022-08-25T13:58:38.859Z,25.47
2022-08-25T14:01:48.051Z,25.45
2022-08-25T14:04:26.266Z,24.85
2022-08-25T14:07:22.722Z,24.47
2022-08-25T14:10:00.949Z,24.31
2022-08-25T14:12:38.118Z,23.90
2022-08-25T14:15:33.899Z,23.10
2022-08-25T14:18:21.695Z,22.69
2022-08-25T14:20:56.494Z,22.81
2022-08-25T14:23:30.818Z,23.33
2022-08-25T14:25:58.786Z,23.46
2022-08-25T14:28:32.029Z,23.34
2022-08-25T14:31:28.132Z,22.15
2022-08-25T14:33:59.933Z,21.55
2022-08-25T14:36:30.330Z,21.20
2022-08-25T14:38:57.904Z,21.05
2022-08-25T14:41:26.685Z,20.79
2022-08-25T14:43:54.217Z,20.16
2022-08-25T14:46:27.068Z,19.49
2022-08-25T14:49:01.031Z,19.44
2022-08-25T14:51:32.654Z,19.75
2022-08-25T14:54:06.192Z,19.53
2022-08-25T14:56:34.188Z,19.20
2022-08-25T14:59:01.516Z,19.50
2022-08-25T15:01:32.044Z,19.70
2022-08-25T15:04:05.659Z,20.48
2022-08-25T15:06:35.612Z,20.98
2022-08-25T15:09:12.882Z,21.66
2022-08-25T15:11:45.914Z,22.37
2022-08-25T15:14:15.892Z,23.08
2022-08-25T15:16:51.394Z,23.70
2022-08-25T15:19:20.608Z,24.56
2022-08-25T15:21:48.546Z,25.09
2022-08-25T15:24:17.680Z,25.54
2022-08-25T15:26:56.428Z,26.11
2022-08-25T15:29:27.469Z,26.68
2022-08-25T15:31:54.313Z,27.37
2022-08-25T15:34:21.565Z,27.88
2022-08-25T15:36:48.726Z,28.29
2022-08-25T15:39:18.870Z,28.38
2022-08-25T15:41:49.710Z,28.63
2022-08-25T15:44:16.716Z,28.96
2022-08-25T15:46:47.168Z,29.35
2022-08-25T15:49:20.744Z,29.47
2022-08-25T15:51:54.813Z,29.84
2022-08-25T15:54:23.513Z,29.84
2022-08-25T15:56:50.585Z,30.12
2022-08-25T15:59:19.136Z,30.25
2022-08-25T16:01:53.748Z,30.36
2022-08-25T16:04:26.415Z,30.32
2022-08-25T16:06:54.031Z,30.71
2022-08-25T16:09:23.553Z,30.82
2022-08-25T16:11:55.636Z,30.93
2022-08-25T16:14:24.088Z,31.37
2022-08-25T16:16:51.712Z,31.57
2022-08-25T16:19:18.793Z,31.69
2022-08-25T16:21:47.566Z,31.77
2022-08-25T16:24:14.713Z,31.89
2022-08-25T16:26:48.006Z,32.00
2022-08-25T16:29:16.488Z,31.88
2022-08-25T16:31:43.926Z,32.33
2022-08-25T16:34:10.731Z,32.46
2022-08-25T16:36:39.993Z,32.56
2022-08-25T16:39:10.013Z,32.57
2022-08-25T16:41:37.432Z,33.00
2022-08-25T16:44:11.198Z,33.36
2022-08-25T16:46:40.793Z,33.23
2022-08-25T16:49:09.347Z,33.87
2022-08-25T16:51:39.037Z,33.83
2022-08-25T16:54:26.253Z,33.99
2022-08-25T16:56:54.953Z,34.26
2022-08-25T16:59:23.448Z,34.23
2022-08-25T17:01:52.282Z,34.70
2022-08-25T17:04:19.537Z,34.94
2022-08-25T17:06:51.547Z,34.87
2022-08-25T17:09:23.006Z,34.57
2022-08-25T17:11:54.338Z,34.88
2022-08-25T17:14:21.979Z,34.82
2022-08-25T17:16:51.212Z,35.17
2022-08-25T17:19:18.590Z,35.22
2022-08-25T17:21:46.462Z,35.16
2022-08-25T17:24:14.500Z,35.24
2022-08-25T17:26:42.484Z,35.47
2022-08-25T17:29:10.462Z,35.64
2022-08-25T17:31:40.013Z,35.76
2022-08-25T17:34:09.579Z,35.63
2022-08-25T17:36:37.235Z,35.96
2022-08-25T17:39:05.407Z,36.00
2022-08-25T17:41:33.458Z,36.17
2022-08-25T17:44:04.942Z,36.63
2022-08-25T17:46:32.258Z,36.58
2022-08-25T17:48:59.227Z,36.64
2022-08-25T17:51:26.292Z,36.71
2022-08-25T17:53:57.169Z,36.33
2022-08-25T17:56:27.808Z,36.39
2022-08-25T17:58:56.299Z,36.69
2022-08-25T18:01:29.352Z,36.63
2022-08-25T18:03:58.972Z,36.57
2022-08-25T18:06:27.389Z,36.85
2022-08-25T18:08:59.939Z,37.23
2022-08-25T18:11:28.870Z,37.18
2022-08-25T18:13:57.572Z,37.17
2022-08-25T18:16:25.119Z,37.26
2022-08-25T18:18:52.808Z,37.52
2022-08-25T18:21:21.378Z,37.51
2022-08-25T18:23:50.471Z,37.89
2022-08-25T18:26:24.747Z,37.65
2022-08-25T18:28:56.266Z,37.88
2022-08-25T18:31:23.604Z,38.18
2022-08-25T18:33:51.150Z,38.20
2022-08-25T18:36:21.011Z,38.13
2022-08-25T18:39:07.525Z,38.39
2022-08-25T18:41:39.084Z,38.21
2022-08-25T18:44:07.472Z,38.31
2022-08-25T18:46:35.059Z,38.51
2022-08-25T18:49:02.964Z,38.77
2022-08-25T18:51:33.041Z,38.79
2022-08-25T18:54:01.485Z,38.90
2022-08-25T18:56:28.952Z,39.38
2022-08-25T18:58:56.054Z,39.35
2022-08-25T19:01:23.397Z,39.33
2022-08-25T19:03:50.639Z,39.72
2022-08-25T19:06:17.691Z,39.58
2022-08-25T19:08:46.015Z,40.08
2022-08-25T19:11:13.111Z,40.28
2022-08-25T19:13:40.546Z,40.17
2022-08-25T19:16:32.208Z,40.37
2022-08-25T19:19:03.630Z,40.57
2022-08-25T19:21:31.285Z,41.16
2022-08-25T19:23:59.932Z,41.26
2022-08-25T19:26:27.288Z,41.41
2022-08-25T19:28:54.170Z,41.68
2022-08-25T19:31:23.444Z,41.90
2022-08-25T19:33:52.673Z,41.97
2022-08-25T19:36:27.866Z,42.46
2022-08-25T19:38:58.332Z,42.42
2022-08-25T19:41:26.591Z,43.15
2022-08-25T19:43:57.048Z,43.02
2022-08-25T19:46:32.897Z,43.68
2022-08-25T19:49:09.168Z,43.82
2022-08-25T19:51:45.659Z,44.01
2022-08-25T19:54:16.474Z,44.35
2022-08-25T19:56:54.244Z,44.53
2022-08-25T19:59:25.843Z,44.71
2022-08-25T20:01:53.151Z,44.83
2022-08-25T20:04:20.261Z,45.21
2022-08-25T20:06:48.288Z,45.04
2022-08-25T20:09:21.146Z,45.67
2022-08-25T20:12:02.739Z,45.80
2022-08-25T20:14:29.862Z,45.80
2022-08-25T20:16:56.586Z,46.32
2022-08-25T20:19:23.375Z,46.47
2022-08-25T20:21:50.253Z,46.48
2022-08-25T20:24:36.167Z,47.02
2022-08-25T20:27:04.414Z,47.07
2022-08-25T20:29:31.884Z,47.22
2022-08-25T20:31:59.022Z,47.13
2022-08-25T20:34:28.987Z,47.47
2022-08-25T20:36:56.095Z,47.56
2022-08-25T20:39:24.626Z,47.91
2022-08-25T20:41:51.907Z,48.23
2022-08-25T20:44:19.428Z,48.33
2022-08-25T20:46:51.506Z,48.34
2022-08-25T20:49:20.294Z,48.59
2022-08-25T20:51:47.229Z,48.54
2022-08-25T20:54:17.543Z,48.70
2022-08-25T20:56:44.398Z,48.94
2022-08-25T20:59:12.937Z,49.08
2022-08-25T21:01:41.381Z,49.43
2022-08-25T21:04:11.290Z,49.63
2022-08-25T21:06:41.574Z,49.60
2022-08-25T21:09:15.678Z,49.87
2022-08-25T21:11:43.592Z,50.22
2022-08-25T21:14:12.935Z,50.41
2022-08-25T21:16:41.088Z,50.53
2022-08-25T21:19:11.100Z,50.35
2022-08-25T21:21:40.066Z,50.42
2022-08-25T21:24:09.736Z,50.78
2022-08-25T21:26:48.937Z,50.64
2022-08-25T21:29:17.445Z,51.10
2022-08-25T21:31:45.724Z,50.88
2022-08-25T21:34:13.684Z,51.25
2022-08-25T21:36:42.188Z,51.18
2022-08-25T21:39:09.921Z,51.42
2022-08-25T21:41:39.480Z,51.45
2022-08-25T21:44:07.664Z,51.78
2022-08-25T21:46:36.484Z,51.69
2022-08-25T21:49:05.882Z,51.92
2022-08-25T21:51:40.674Z,52.22
2022-08-25T21:54:11.549Z,52.03
2022-08-25T21:56:49.724Z,52.18
2022-08-25T21:59:21.045Z,52.58
2022-08-25T22:01:47.815Z,52.52
2022-08-25T22:04:15.797Z,52.87
2022-08-25T22:06:42.704Z,53.11
2022-08-25T22:09:12.847Z,52.88
2022-08-25T22:11:42.703Z,53.29
2022-08-25T22:14:10.514Z,53.39
2022-08-25T22:16:38.592Z,53.49
2022-08-25T22:19:08.480Z,53.15
2022-08-25T22:21:36.420Z,53.25
2022-08-25T22:24:03.711Z,53.62
2022-08-25T22:26:32.258Z,53.83
2022-08-25T22:29:00.793Z,53.54
2022-08-25T22:31:28.529Z,54.00
2022-08-25T22:33:57.748Z,54.08
2022-08-25T22:36:34.746Z,54.02
2022-08-25T22:39:02.954Z,54.38
2022-08-25T22:41:31.596Z,54.55
2022-08-25T22:44:00.474Z,54.67
2022-08-25T22:46:32.573Z,54.64
2022-08-25T22:49:00.218Z,54.83
2022-08-25T22:51:31.627Z,54.78
2022-08-25T22:54:00.553Z,54.75
2022-08-25T22:56:34.767Z,55.11
2022-08-25T22:59:10.033Z,55.13
2022-08-25T23:01:38.342Z,55.45
2022-08-25T23:04:07.411Z,55.57
2022-08-25T23:06:36.909Z,55.52
2022-08-25T23:09:06.701Z,55.47
2022-08-25T23:11:35.788Z,55.45
2022-08-25T23:14:08.397Z,55.69
2022-08-25T23:16:35.203Z,55.41
2022-08-25T23:19:02.223Z,55.97
2022-08-25T23:21:47.951Z,55.65
2022-08-25T23:24:29.555Z,55.83
2022-08-25T23:27:02.029Z,55.81
2022-08-25T23:29:30.222Z,55.94
2022-08-25T23:31:57.774Z,55.80
2022-08-25T23:34:25.456Z,55.89
2022-08-25T23:36:52.663Z,55.95
2022-08-25T23:39:21.706Z,56.19
2022-08-25T23:41:50.252Z,56.14
2022-08-25T23:44:18.068Z,56.08
2022-08-25T23:46:47.333Z,55.91
2022-08-25T23:49:18.196Z,55.64
2022-08-25T23:51:46.977Z,55.84
2022-08-25T23:54:13.985Z,55.75
2022-08-25T23:56:44.797Z,55.84
2022-08-25T23:59:24.480Z,56.13
